AirNav   ProFlight Series 2 Aviation Headset
 
 765 users online  

4MS3 Jeter Field Airport
Sladen, Mississippi, USA

GOING TO SLADEN?


FAA INFORMATION EFFECTIVE 16 JULY 2020

Location

FAA Identifier: 4MS3
Lat/Long: 34-57-21.7000N 089-23-38.5000W
34-57.361667N 089-23.641667W
34.9560278,-89.3940278
(estimated)
Elevation: 520 ft. / 158 m (estimated)
Variation: 01E (1995)
From city: 3 miles E of SLADEN, MS
Time zone: UTC -5 (UTC -6 during Standard Time)
Zip code: 38642

Airport Operations

Airport use: Private use. Permission required prior to landing
Activation date: 06/1999
Control tower: no
ARTCC: MEMPHIS CENTER
FSS: JACKSON FLIGHT SERVICE STATION
Attendance: UNATNDD
Segmented circle: no

Airport Communications

WX AWOS-3 at FYE (15 nm N): 119.875 (901-465-6367)
WX AWOS-3 at OLV (19 nm W): 119.925 (662-893-5906)

Nearby radio navigation aids

VOR radial/distance  VOR name  Freq  Var
HLIr021/12.2HOLLY SPRINGS VORTAC112.4003E
MEMr096/29.2MEMPHIS VORTAC117.5001E

 
NDB name  Hdg/Dist  Freq  Var  ID
MERSY214/39.839401WMKL -- -.- .-..

Airport Services

Runway Information

Runway 17/35

Dimensions: 3000 x 80 ft. / 914 x 24 m
Surface: turf
RUNWAY 17  RUNWAY 35
Traffic pattern: leftleft
ALL TFC REMAIN EAST OF THE RY.

Airport Ownership and Management from official FAA records

Ownership: Privately-owned
Owner: MICHAEL L. ELLIOTT
183 EARLY GROVE ROAD
LAMAR, MS 38642
Phone 662-252-6111
Manager: MICHAEL L. ELLIOTT
183 EARLY GROVE ROAD
LAMAR, MS 38642
Phone 662-252-6111

Airport Operational Statistics

Aircraft based on the field: 2
Single engine airplanes: 1
Ultralights: 1
    

Additional Remarks

300 FT POWER LINES 2 NM NORTH & SOUTH OF ARPT.
FOR CD CTC MEMPHIS APCH AT 901-842-8457.
TFC PAT INDCR ON BOTH ENDS OF RWY.

Instrument Procedures

There are no published instrument procedures at 4MS3.

Some nearby airports with instrument procedures:

M41 - Holly Springs-Marshall County Airport (11 nm SW)
KFYE - Fayette County Airport (15 nm N)
KOLV - Olive Branch Airport (19 nm W)
M08 - William L Whitehurst Field Airport (23 nm NE)
25M - Ripley Airport (23 nm SE)
 
Loc | Ops | Rwys | IFR | FBO | Links
Com | Nav | Svcs | Stats | Notes
Area around 4MS3 (Jeter Field Airport)
 
Road maps at: MapQuest Bing Google
 
Aerial photo
No photo
 
Sectional chart

 
Airport distance calculator
Flying to Jeter Field Airport? Find the distance to fly.

From to 4MS3

Sunrise and sunset
Times for 06-Aug-2020
 Local
(UTC-5)
 Zulu
(UTC)
Morning civil twilight05:4510:45
Sunrise06:1311:13
Sunset19:5400:54
Evening civil twilight20:2101:21

Current date and time
Zulu (UTC)  06-Aug-2020 11:57:45
Local (UTC-5)  06-Aug-2020 06:57:45
 
METAR
KFYE 
15nm N 
061135Z AUTO 00000KT 10SM CLR 16/16 A3005 RMK A01
KOLV 
19nm W 
061150Z 02004KT 10SM SKC 18/17 A3005
KM08 
23nm NE 
061135Z AUTO 00000KT 10SM CLR 17/16 A3005 RMK A01
KMEM 
30nm W 
061154Z 02004KT 10SM FEW250 20/16 A3006 RMK AO2 SLP177 T02000156 10217 20189 53007
TAF
KMEM 
30nm W 
060859Z 0609/0712 04005KT P6SM SKC FM061600 02008KT P6SM FEW050 FM070200 04004KT P6SM FEW250
NOTAMs
Click for the latest NOTAMs
NOTAMs are issued by the DoD/FAA and will open in a separate window not controlled by AirNav.

 

 
 

Would you like to see your business listed on this page?

 If your business provides an interesting product or service to pilots, flight crews, aircraft, or users of the Jeter Field Airport, you should consider listing it here.  To start the listing process, click on the button below
 
Add a business
 

Other Pages about Jeter Field Airport

Update a link
 
Copyright © AirNav, LLC. All rights reserved. Privacy Policy  Contact